createdAt,value
2019-03-06T00:00:38.327Z,56.24
2019-03-06T00:03:10.790Z,59.86
2019-03-06T00:05:43.562Z,63.29
2019-03-06T00:08:16.043Z,60.61
2019-03-06T00:10:48.422Z,51.21
2019-03-06T00:13:20.789Z,52.85
2019-03-06T00:15:53.269Z,55.89
2019-03-06T00:18:26.143Z,58.71
2019-03-06T00:20:58.516Z,60.82
2019-03-06T00:23:30.881Z,64.82
2019-03-06T00:26:03.475Z,57.15
2019-03-06T00:28:35.943Z,52.47
2019-03-06T00:31:08.332Z,54.94
2019-03-06T00:33:40.354Z,58.50
2019-03-06T00:36:15.257Z,60.76
2019-03-06T00:38:47.678Z,64.70
2019-03-06T00:41:21.586Z,60.29
2019-03-06T00:43:53.964Z,52.10
2019-03-06T00:46:27.222Z,53.87
2019-03-06T00:48:59.630Z,57.20
2019-03-06T00:51:32.097Z,59.33
2019-03-06T00:54:04.475Z,63.04
2019-03-06T00:56:36.845Z,60.56
2019-03-06T00:59:09.222Z,50.05
2019-03-06T01:01:41.586Z,50.93
2019-03-06T01:04:14.066Z,54.28
2019-03-06T01:06:46.426Z,56.57
2019-03-06T01:09:18.803Z,60.22
2019-03-06T01:11:51.182Z,60.82
2019-03-06T01:14:23.651Z,64.51
2019-03-06T01:16:56.017Z,58.74
2019-03-06T01:19:29.630Z,51.77
2019-03-06T01:22:01.996Z,53.72
2019-03-06T01:24:34.365Z,57.50
2019-03-06T01:27:06.634Z,59.36
2019-03-06T01:29:39.017Z,61.68
2019-03-06T01:32:11.386Z,64.66
2019-03-06T01:34:47.985Z,61.07
2019-03-06T01:37:24.835Z,51.83
2019-03-06T01:40:16.761Z,53.00
2019-03-06T01:42:50.668Z,55.54
2019-03-06T01:45:23.030Z,58.38
2019-03-06T01:47:55.305Z,60.85
2019-03-06T01:50:27.696Z,64.46
2019-03-06T01:53:00.052Z,58.41
2019-03-06T01:55:32.434Z,51.45
2019-03-06T01:58:04.764Z,54.22
2019-03-06T02:00:37.165Z,56.89
2019-03-06T02:03:09.084Z,59.17
2019-03-06T02:05:41.080Z,63.00
2019-03-06T02:08:13.353Z,61.20
2019-03-06T02:10:45.733Z,52.41
2019-03-06T02:13:18.608Z,53.70
2019-03-06T02:15:50.989Z,56.88
2019-03-06T02:18:23.362Z,59.01
2019-03-06T02:20:56.239Z,61.23
2019-03-06T02:23:28.508Z,65.44
2019-03-06T02:26:00.893Z,57.29
2019-03-06T02:28:33.267Z,50.57
2019-03-06T02:31:05.636Z,53.13
2019-03-06T02:33:38.115Z,55.81
2019-03-06T02:36:10.131Z,57.47
2019-03-06T02:38:42.545Z,60.51
2019-03-06T02:41:14.904Z,61.09
2019-03-06T02:43:47.186Z,64.70
2019-03-06T02:46:19.564Z,53.81
2019-03-06T02:48:51.981Z,50.17
2019-03-06T02:51:23.987Z,52.85
2019-03-06T02:53:56.389Z,56.35
2019-03-06T02:56:28.728Z,57.73
2019-03-06T02:59:02.651Z,59.98
2019-03-06T03:01:39.734Z,63.13
2019-03-06T03:04:13.741Z,63.89
2019-03-06T03:06:47.742Z,51.78
2019-03-06T03:09:20.382Z,51.21
2019-03-06T03:11:52.371Z,53.75
2019-03-06T03:14:24.645Z,56.04
2019-03-06T03:16:56.631Z,58.84
2019-03-06T03:19:28.995Z,60.93
2019-03-06T03:22:01.682Z,65.29
2019-03-06T03:24:34.041Z,58.76
2019-03-06T03:27:06.423Z,52.62
2019-03-06T03:29:38.878Z,54.83
2019-03-06T03:32:11.276Z,57.30
2019-03-06T03:34:43.629Z,60.04
2019-03-06T03:37:15.963Z,61.97
2019-03-06T03:39:48.437Z,63.30
2019-03-06T03:42:20.854Z,52.88
2019-03-06T03:44:53.238Z,52.89
2019-03-06T03:47:25.591Z,56.40
2019-03-06T03:49:57.859Z,58.07
2019-03-06T03:52:30.437Z,59.38
2019-03-06T03:55:03.128Z,65.27
2019-03-06T03:57:35.487Z,58.01
2019-03-06T04:00:12.095Z,50.45
2019-03-06T04:02:44.435Z,53.15
2019-03-06T04:05:16.807Z,55.32
2019-03-06T04:07:49.176Z,58.98
2019-03-06T04:10:21.092Z,60.47
2019-03-06T04:12:53.510Z,64.94
2019-03-06T04:15:25.762Z,56.19
2019-03-06T04:17:58.150Z,51.18
2019-03-06T04:20:30.520Z,53.49
2019-03-06T04:23:05.867Z,56.35
2019-03-06T04:25:38.745Z,59.54
2019-03-06T04:28:11.117Z,60.32
2019-03-06T04:30:43.481Z,64.32
2019-03-06T04:33:16.982Z,60.98
2019-03-06T04:35:49.682Z,50.49
2019-03-06T04:38:22.135Z,51.67
2019-03-06T04:40:54.518Z,54.14
2019-03-06T04:43:26.993Z,57.50
2019-03-06T04:45:59.460Z,59.37
2019-03-06T04:48:33.063Z,62.21
2019-03-06T04:51:05.435Z,61.03
2019-03-06T04:53:38.009Z,51.26
2019-03-06T04:56:10.798Z,53.11
2019-03-06T04:58:43.160Z,54.73
2019-03-06T05:01:16.661Z,56.99
2019-03-06T05:03:49.034Z,60.84
2019-03-06T05:06:22.673Z,65.09
2019-03-06T05:08:55.115Z,59.31
2019-03-06T05:11:28.602Z,51.15
2019-03-06T05:14:00.979Z,53.29
2019-03-06T05:16:52.297Z,55.16
2019-03-06T05:19:24.778Z,59.11
2019-03-06T05:21:57.021Z,61.52
2019-03-06T05:24:30.647Z,65.47
2019-03-06T05:27:03.018Z,57.68
2019-03-06T05:29:35.391Z,51.15
2019-03-06T05:32:28.945Z,52.96
2019-03-06T05:35:14.687Z,57.42
2019-03-06T05:38:00.530Z,59.03
2019-03-06T05:40:32.905Z,62.46
2019-03-06T05:43:05.261Z,63.23
2019-03-06T05:45:37.653Z,51.58
2019-03-06T05:48:10.014Z,51.30
2019-03-06T05:50:43.720Z,53.55
2019-03-06T05:53:17.622Z,55.86
2019-03-06T05:55:49.611Z,58.94
2019-03-06T05:58:22.976Z,60.53
2019-03-06T06:00:55.354Z,65.54
2019-03-06T06:03:27.621Z,58.50
2019-03-06T06:05:59.993Z,51.23
2019-03-06T06:08:32.390Z,53.21
2019-03-06T06:11:04.951Z,56.70
2019-03-06T06:13:37.338Z,59.26
2019-03-06T06:16:09.808Z,61.39
2019-03-06T06:18:42.161Z,65.33
2019-03-06T06:21:21.908Z,54.89
2019-03-06T06:23:55.422Z,52.36
2019-03-06T06:26:27.979Z,54.59
2019-03-06T06:29:00.486Z,57.79
2019-03-06T06:31:33.029Z,61.01
2019-03-06T06:34:06.480Z,63.15
2019-03-06T06:36:38.903Z,61.80
2019-03-06T06:39:11.385Z,51.23
2019-03-06T06:41:43.868Z,52.67
2019-03-06T06:44:16.217Z,55.98
2019-03-06T06:46:48.696Z,58.63
2019-03-06T06:49:21.015Z,59.99
2019-03-06T06:52:15.559Z,62.02
2019-03-06T06:55:04.524Z,61.95
2019-03-06T06:58:16.221Z,51.24
2019-03-06T07:01:03.639Z,53.37
2019-03-06T07:04:03.867Z,56.82
2019-03-06T07:06:46.891Z,60.03
2019-03-06T07:09:23.658Z,61.45
2019-03-06T07:12:03.300Z,64.19
2019-03-06T07:14:37.200Z,52.95
2019-03-06T07:17:26.177Z,53.21
2019-03-06T07:20:12.154Z,56.28
2019-03-06T07:22:49.957Z,58.43
2019-03-06T07:25:40.359Z,60.67
2019-03-06T07:28:14.193Z,61.99
2019-03-06T07:30:48.006Z,65.11
2019-03-06T07:33:31.083Z,57.12
2019-03-06T07:36:09.095Z,51.13
2019-03-06T07:38:41.017Z,53.59
2019-03-06T07:41:15.167Z,55.23
2019-03-06T07:43:52.051Z,58.43
2019-03-06T07:46:42.033Z,59.31
2019-03-06T07:49:21.166Z,60.53
2019-03-06T07:52:11.971Z,62.41
2019-03-06T07:54:45.865Z,65.04
2019-03-06T07:57:18.045Z,54.11
2019-03-06T07:59:50.427Z,49.13
2019-03-06T08:02:31.037Z,52.09
2019-03-06T08:05:03.457Z,54.74
2019-03-06T08:07:36.232Z,56.44
2019-03-06T08:10:19.350Z,57.99
2019-03-06T08:13:05.246Z,59.28
2019-03-06T08:15:45.293Z,60.88
2019-03-06T08:18:19.202Z,61.66
2019-03-06T08:21:08.271Z,63.23
2019-03-06T08:24:00.098Z,51.22
2019-03-06T08:26:33.586Z,51.54
2019-03-06T08:29:07.145Z,52.99
2019-03-06T08:31:41.619Z,55.40
2019-03-06T08:34:13.979Z,56.84
2019-03-06T08:36:46.556Z,58.15
2019-03-06T08:39:21.912Z,59.37
2019-03-06T08:41:54.278Z,61.11
2019-03-06T08:44:27.679Z,61.40
2019-03-06T08:47:16.784Z,62.19
2019-03-06T08:49:55.206Z,63.30
2019-03-06T08:52:31.940Z,53.00
2019-03-06T08:55:04.596Z,51.13
2019-03-06T08:57:38.507Z,53.07
2019-03-06T09:00:18.155Z,55.15
2019-03-06T09:03:04.420Z,56.37
2019-03-06T09:05:41.634Z,57.76
2019-03-06T09:08:18.927Z,58.19
2019-03-06T09:11:02.796Z,59.21
2019-03-06T09:13:37.428Z,58.08
2019-03-06T09:16:17.145Z,60.36
2019-03-06T09:18:53.633Z,60.60
2019-03-06T09:21:30.208Z,60.86
2019-03-06T09:24:06.849Z,60.58
2019-03-06T09:26:43.727Z,60.56
2019-03-06T09:29:30.232Z,61.32
2019-03-06T09:32:13.244Z,62.16
2019-03-06T09:34:47.253Z,62.87
2019-03-06T09:37:26.820Z,50.21
2019-03-06T09:40:10.139Z,48.23
2019-03-06T09:42:47.107Z,50.74
2019-03-06T09:45:23.975Z,52.11
2019-03-06T09:48:14.280Z,53.63
2019-03-06T09:50:53.914Z,53.38
2019-03-06T09:53:30.993Z,54.86
2019-03-06T09:56:04.904Z,56.22
2019-03-06T09:58:55.094Z,56.76
2019-03-06T10:01:34.486Z,56.74
2019-03-06T10:04:12.750Z,56.75
2019-03-06T10:06:52.185Z,56.39
2019-03-06T10:09:44.526Z,56.17
2019-03-06T10:12:21.604Z,57.13
2019-03-06T10:15:08.209Z,57.49
2019-03-06T10:17:51.431Z,58.07
2019-03-06T10:20:26.989Z,57.98
2019-03-06T10:22:59.723Z,57.99
2019-03-06T10:25:32.295Z,57.69
2019-03-06T10:28:06.552Z,58.05
2019-03-06T10:30:39.400Z,56.89
2019-03-06T10:33:11.340Z,56.87
2019-03-06T10:35:43.783Z,56.33
2019-03-06T10:38:16.831Z,56.41
2019-03-06T10:40:49.952Z,56.08
2019-03-06T10:43:23.769Z,55.44
2019-03-06T10:45:56.436Z,56.30
2019-03-06T10:48:28.815Z,55.05
2019-03-06T10:51:01.177Z,54.05
2019-03-06T10:53:41.077Z,54.59
2019-03-06T10:56:07.253Z,54.11
2019-03-06T10:58:39.622Z,53.39
2019-03-06T11:01:12.097Z,52.12
2019-03-06T11:03:46.018Z,52.54
2019-03-06T11:06:18.594Z,51.50
2019-03-06T11:08:50.948Z,50.04
2019-03-06T11:11:23.447Z,49.16
2019-03-06T11:13:55.811Z,49.94
2019-03-06T11:16:28.183Z,49.57
2019-03-06T11:19:02.182Z,49.83
2019-03-06T11:21:34.554Z,48.23
2019-03-06T11:24:07.025Z,48.46
2019-03-06T11:26:39.503Z,48.91
2019-03-06T11:29:11.810Z,47.48
2019-03-06T11:31:44.865Z,45.65
2019-03-06T11:34:17.231Z,45.76
2019-03-06T11:36:49.617Z,45.76
2019-03-06T11:39:22.389Z,45.18
2019-03-06T11:41:54.758Z,43.74
2019-03-06T11:44:27.195Z,42.78
2019-03-06T11:46:59.658Z,42.30
2019-03-06T11:49:32.004Z,41.72
2019-03-06T11:52:05.682Z,41.01
2019-03-06T11:54:38.051Z,40.22
2019-03-06T11:57:10.421Z,39.24
2019-03-06T11:59:42.797Z,38.59
2019-03-06T12:02:15.165Z,37.52
2019-03-06T12:04:47.142Z,37.39
2019-03-06T12:07:19.615Z,36.06
2019-03-06T12:09:53.015Z,36.81
2019-03-06T12:12:25.483Z,35.98
2019-03-06T12:14:58.358Z,35.84
2019-03-06T12:17:30.730Z,35.39
2019-03-06T12:20:08.053Z,35.65
2019-03-06T12:22:37.123Z,35.23
2019-03-06T12:25:12.554Z,35.42
2019-03-06T12:27:45.956Z,35.83
2019-03-06T12:30:19.308Z,33.94
2019-03-06T12:32:53.362Z,34.32
2019-03-06T12:35:25.728Z,33.14
2019-03-06T12:37:58.314Z,31.71
2019-03-06T12:40:31.549Z,32.33
2019-03-06T12:43:03.970Z,32.35
2019-03-06T12:45:36.354Z,31.35
2019-03-06T12:48:15.307Z,31.48
2019-03-06T12:50:55.187Z,29.74
2019-03-06T12:53:21.603Z,29.46
2019-03-06T12:55:53.922Z,30.23
2019-03-06T12:58:26.815Z,29.64
2019-03-06T13:00:59.287Z,27.47
2019-03-06T13:03:31.678Z,28.18
2019-03-06T13:06:04.022Z,27.68
2019-03-06T13:08:36.460Z,27.16
2019-03-06T13:11:08.874Z,26.59
2019-03-06T13:13:42.442Z,27.05
2019-03-06T13:16:14.737Z,27.55
2019-03-06T13:18:47.122Z,27.39
2019-03-06T13:21:20.100Z,28.12
2019-03-06T13:23:52.474Z,27.14
2019-03-06T13:26:24.840Z,27.27
2019-03-06T13:28:57.856Z,26.27
2019-03-06T13:31:30.399Z,26.25
2019-03-06T13:34:07.793Z,26.40
2019-03-06T13:36:40.479Z,26.00
2019-03-06T13:39:12.848Z,26.20
2019-03-06T13:41:44.998Z,25.94
2019-03-06T13:44:19.025Z,26.33
2019-03-06T13:46:51.600Z,27.02
2019-03-06T13:49:23.703Z,26.80
2019-03-06T13:51:56.043Z,27.66
2019-03-06T13:54:28.417Z,27.58
2019-03-06T13:57:00.344Z,27.61
2019-03-06T13:59:32.845Z,28.06
2019-03-06T14:02:05.215Z,28.19
2019-03-06T14:04:37.796Z,28.05
2019-03-06T14:07:10.378Z,28.48
2019-03-06T14:09:43.050Z,28.10
2019-03-06T14:12:17.007Z,28.12
2019-03-06T14:14:49.432Z,28.08
2019-03-06T14:17:21.907Z,28.05
2019-03-06T14:19:54.650Z,28.41
2019-03-06T14:22:26.965Z,27.82
2019-03-06T14:24:59.339Z,27.51
2019-03-06T14:27:31.804Z,25.91
2019-03-06T14:30:05.929Z,25.89
2019-03-06T14:32:38.702Z,26.15
2019-03-06T14:35:11.580Z,26.64
2019-03-06T14:37:45.344Z,26.57
2019-03-06T14:40:32.714Z,27.44
2019-03-06T14:43:09.792Z,28.44
2019-03-06T14:45:42.172Z,29.09
2019-03-06T14:48:14.116Z,29.81
2019-03-06T14:50:46.871Z,30.70
2019-03-06T14:53:19.176Z,32.23
2019-03-06T14:55:51.663Z,32.42
2019-03-06T14:58:24.023Z,33.23
2019-03-06T15:00:57.018Z,34.10
2019-03-06T15:03:29.388Z,34.50
2019-03-06T15:06:01.755Z,35.56
2019-03-06T15:08:34.138Z,35.42
2019-03-06T15:11:06.486Z,35.66
2019-03-06T15:13:39.259Z,35.56
2019-03-06T15:16:12.068Z,35.48
2019-03-06T15:18:45.869Z,35.53
2019-03-06T15:21:18.457Z,35.32
2019-03-06T15:23:50.821Z,35.82
2019-03-06T15:26:24.213Z,35.50
2019-03-06T15:28:56.590Z,35.43
2019-03-06T15:31:28.955Z,35.78
2019-03-06T15:34:01.642Z,36.01
2019-03-06T15:36:34.044Z,36.31
2019-03-06T15:39:10.175Z,36.93
2019-03-06T15:41:42.549Z,37.65
2019-03-06T15:44:14.909Z,37.92
2019-03-06T15:46:47.291Z,38.50
2019-03-06T15:49:19.245Z,38.96
2019-03-06T15:51:51.627Z,39.57
2019-03-06T15:54:23.990Z,40.21
2019-03-06T15:56:56.362Z,41.01
2019-03-06T15:59:28.740Z,41.34
2019-03-06T16:02:01.527Z,42.05
2019-03-06T16:04:33.902Z,42.30
2019-03-06T16:07:06.361Z,42.81
2019-03-06T16:09:39.759Z,43.29
2019-03-06T16:12:12.379Z,43.55
2019-03-06T16:14:44.922Z,44.87
2019-03-06T16:17:17.282Z,44.69
2019-03-06T16:19:49.654Z,45.10
2019-03-06T16:22:22.037Z,45.52
2019-03-06T16:24:54.402Z,45.71
2019-03-06T16:27:26.770Z,46.35
2019-03-06T16:29:59.039Z,46.51
2019-03-06T16:32:31.823Z,46.56
2019-03-06T16:35:04.300Z,47.23
2019-03-06T16:37:37.173Z,47.45
2019-03-06T16:40:16.817Z,47.73
2019-03-06T16:42:50.029Z,48.62
2019-03-06T16:45:27.730Z,48.65
2019-03-06T16:48:00.178Z,49.25
2019-03-06T16:50:32.561Z,48.80
2019-03-06T16:53:04.937Z,49.65
2019-03-06T16:55:37.367Z,49.60
2019-03-06T16:58:09.779Z,49.67
2019-03-06T17:00:42.144Z,49.94
2019-03-06T17:03:14.519Z,49.76
2019-03-06T17:05:46.782Z,50.42
2019-03-06T17:08:20.285Z,50.71
2019-03-06T17:10:53.792Z,50.53
2019-03-06T17:13:25.778Z,51.78
2019-03-06T17:15:58.214Z,51.31
2019-03-06T17:18:30.600Z,51.50
2019-03-06T17:21:02.966Z,52.43
2019-03-06T17:23:35.336Z,51.80
2019-03-06T17:26:07.719Z,52.03
2019-03-06T17:28:40.080Z,52.71
2019-03-06T17:31:12.767Z,53.14
2019-03-06T17:33:44.767Z,54.48
2019-03-06T17:36:17.094Z,55.10
2019-03-06T17:38:49.701Z,54.73
2019-03-06T17:41:22.054Z,55.94
2019-03-06T17:43:54.409Z,56.51
2019-03-06T17:46:26.790Z,56.72
2019-03-06T17:48:59.157Z,56.38
2019-03-06T17:51:31.640Z,55.07
2019-03-06T17:54:04.011Z,55.71
2019-03-06T17:56:36.425Z,55.10
2019-03-06T17:59:08.861Z,55.16
2019-03-06T18:01:41.329Z,56.97
2019-03-06T18:04:15.348Z,56.02
2019-03-06T18:06:47.711Z,56.34
2019-03-06T18:09:20.086Z,56.05
2019-03-06T18:11:52.016Z,56.90
2019-03-06T18:14:24.998Z,56.89
2019-03-06T18:16:57.376Z,57.34
2019-03-06T18:19:29.737Z,58.07
2019-03-06T18:22:02.116Z,57.79
2019-03-06T18:24:34.484Z,58.19
2019-03-06T18:27:07.162Z,58.55
2019-03-06T18:29:39.642Z,58.69
2019-03-06T18:32:12.000Z,58.02
2019-03-06T18:34:44.370Z,58.02
2019-03-06T18:37:16.644Z,57.32
2019-03-06T18:39:49.535Z,57.63
2019-03-06T18:42:21.910Z,57.21
2019-03-06T18:44:53.883Z,57.57
2019-03-06T18:47:26.345Z,57.44
2019-03-06T18:49:59.127Z,57.84
2019-03-06T18:52:31.500Z,57.93
2019-03-06T18:55:03.868Z,58.02
2019-03-06T18:57:36.128Z,57.37
2019-03-06T19:00:26.434Z,57.65
2019-03-06T19:02:58.795Z,57.38
2019-03-06T19:05:31.173Z,57.62
2019-03-06T19:08:03.441Z,57.80
2019-03-06T19:10:35.810Z,58.26
2019-03-06T19:13:08.186Z,58.35
2019-03-06T19:15:40.561Z,57.94
2019-03-06T19:18:12.931Z,58.38
2019-03-06T19:20:45.296Z,58.05
2019-03-06T19:23:17.417Z,57.76
2019-03-06T19:25:49.839Z,58.04
2019-03-06T19:28:22.216Z,58.37
2019-03-06T19:30:54.573Z,58.06
2019-03-06T19:33:26.951Z,58.66
2019-03-06T19:35:59.277Z,58.83
2019-03-06T19:38:32.823Z,58.81
2019-03-06T19:41:06.839Z,58.84
2019-03-06T19:43:39.198Z,59.39
2019-03-06T19:46:11.580Z,58.99
2019-03-06T19:48:43.957Z,59.54
2019-03-06T19:51:16.321Z,59.71
2019-03-06T19:53:48.589Z,59.70
2019-03-06T19:56:22.199Z,59.86
2019-03-06T19:58:55.079Z,60.49
2019-03-06T20:01:27.447Z,61.47
2019-03-06T20:03:59.724Z,61.12
2019-03-06T20:06:32.084Z,61.18
2019-03-06T20:09:05.379Z,61.65
2019-03-06T20:11:38.775Z,60.57
2019-03-06T20:14:11.155Z,61.79
2019-03-06T20:16:43.521Z,61.30
2019-03-06T20:19:15.891Z,61.60
2019-03-06T20:21:48.278Z,63.84
2019-03-06T20:24:20.641Z,59.52
2019-03-06T20:26:53.109Z,50.35
2019-03-06T20:29:25.377Z,50.91
2019-03-06T20:31:57.754Z,52.24
2019-03-06T20:34:30.130Z,53.41
2019-03-06T20:37:02.493Z,54.75
2019-03-06T20:39:34.871Z,55.96
2019-03-06T20:42:07.260Z,57.08
2019-03-06T20:44:39.595Z,57.08
2019-03-06T20:47:12.194Z,58.16
2019-03-06T20:49:44.558Z,58.20
2019-03-06T20:52:16.930Z,59.04
2019-03-06T20:54:49.967Z,59.81
2019-03-06T20:57:22.393Z,59.53
2019-03-06T20:59:55.165Z,59.41
2019-03-06T21:02:27.553Z,59.66
2019-03-06T21:05:01.348Z,60.29
2019-03-06T21:07:38.180Z,61.06
2019-03-06T21:10:12.546Z,61.00
2019-03-06T21:12:44.922Z,61.56
2019-03-06T21:15:21.623Z,65.66
2019-03-06T21:17:54.075Z,54.77
2019-03-06T21:20:26.409Z,47.51
2019-03-06T21:22:58.806Z,48.59
2019-03-06T21:25:31.076Z,50.42
2019-03-06T21:28:03.489Z,51.92
2019-03-06T21:30:42.994Z,53.16
2019-03-06T21:33:15.368Z,54.37
2019-03-06T21:35:47.647Z,54.38
2019-03-06T21:38:20.001Z,55.98
2019-03-06T21:40:51.921Z,56.95
2019-03-06T21:43:24.643Z,56.53
2019-03-06T21:45:57.031Z,58.94
2019-03-06T21:48:29.382Z,58.74
2019-03-06T21:51:01.772Z,59.66
2019-03-06T21:53:34.129Z,60.36
2019-03-06T21:56:07.637Z,60.77
2019-03-06T21:58:40.103Z,60.40
2019-03-06T22:01:12.480Z,61.65
2019-03-06T22:03:44.848Z,62.04
2019-03-06T22:06:17.784Z,62.54
2019-03-06T22:08:50.614Z,62.51
2019-03-06T22:11:22.532Z,48.89
2019-03-06T22:13:55.305Z,49.21
2019-03-06T22:16:27.230Z,51.33
2019-03-06T22:19:00.979Z,52.95
2019-03-06T22:21:33.551Z,54.28
2019-03-06T22:24:07.233Z,55.09
2019-03-06T22:26:39.153Z,55.88
2019-03-06T22:29:12.752Z,56.62
2019-03-06T22:31:45.456Z,57.45
2019-03-06T22:34:17.814Z,58.89
2019-03-06T22:36:50.240Z,58.66
2019-03-06T22:39:22.661Z,59.26
2019-03-06T22:41:55.246Z,59.70
2019-03-06T22:44:28.627Z,60.65
2019-03-06T22:47:00.897Z,60.94
2019-03-06T22:49:33.280Z,61.61
2019-03-06T22:52:05.859Z,61.55
2019-03-06T22:54:38.222Z,62.26
2019-03-06T22:57:10.598Z,62.34
2019-03-06T22:59:43.136Z,48.86
2019-03-06T23:02:15.555Z,47.33
2019-03-06T23:04:49.349Z,49.17
2019-03-06T23:07:21.830Z,50.92
2019-03-06T23:09:54.261Z,52.01
2019-03-06T23:12:27.663Z,53.59
2019-03-06T23:15:00.071Z,54.42
2019-03-06T23:17:32.646Z,55.48
2019-03-06T23:20:06.651Z,56.26
2019-03-06T23:22:38.963Z,57.59
2019-03-06T23:25:11.403Z,57.56
2019-03-06T23:27:43.762Z,58.40
2019-03-06T23:30:17.369Z,59.27
2019-03-06T23:32:50.162Z,60.54
2019-03-06T23:35:22.535Z,60.85
2019-03-06T23:37:54.460Z,64.76
2019-03-06T23:40:26.871Z,57.19
2019-03-06T23:42:59.227Z,48.24
2019-03-06T23:45:32.371Z,50.89
2019-03-06T23:48:04.292Z,52.12
2019-03-06T23:50:37.982Z,53.92
2019-03-06T23:53:11.896Z,54.31
2019-03-06T23:55:44.569Z,55.76
2019-03-06T23:58:17.008Z,57.37
